createdAt,value
2019-03-03T00:00:35.278Z,10.22
2019-03-03T00:01:35.197Z,10.26
2019-03-03T00:02:35.115Z,10.29
2019-03-03T00:03:35.041Z,10.25
2019-03-03T00:04:34.944Z,10.25
2019-03-03T00:05:34.864Z,10.28
2019-03-03T00:06:34.773Z,10.20
2019-03-03T00:07:34.688Z,10.13
2019-03-03T00:08:34.630Z,10.17
2019-03-03T00:09:34.525Z,10.11
2019-03-03T00:10:34.443Z,10.11
2019-03-03T00:11:34.353Z,10.09
2019-03-03T00:12:34.275Z,10.17
2019-03-03T00:13:34.201Z,10.17
2019-03-03T00:14:34.103Z,10.17
2019-03-03T00:15:34.028Z,10.20
2019-03-03T00:16:33.941Z,10.22
2019-03-03T00:17:33.849Z,10.18
2019-03-03T00:18:33.778Z,10.22
2019-03-03T00:19:33.686Z,10.22
2019-03-03T00:20:33.607Z,10.22
2019-03-03T00:21:33.512Z,10.26
2019-03-03T00:22:33.438Z,10.25
2019-03-03T00:23:33.358Z,10.26
2019-03-03T00:24:33.260Z,10.24
2019-03-03T00:25:33.185Z,10.16
2019-03-03T00:26:33.093Z,10.17
2019-03-03T00:27:33.009Z,10.16
2019-03-03T00:28:32.955Z,10.24
2019-03-03T00:29:32.851Z,10.13
2019-03-03T00:30:32.764Z,10.14
2019-03-03T00:31:32.672Z,10.13
2019-03-03T00:32:32.594Z,10.16
2019-03-03T00:33:32.518Z,10.14
2019-03-03T00:34:32.431Z,10.11
2019-03-03T00:35:32.339Z,10.14
2019-03-03T00:36:32.260Z,10.22
2019-03-03T00:37:32.167Z,10.13
2019-03-03T00:38:32.105Z,10.14
2019-03-03T00:39:32.000Z,10.13
2019-03-03T00:40:31.924Z,10.11
2019-03-03T00:41:31.831Z,10.20
2019-03-03T00:42:31.751Z,10.35
2019-03-03T00:43:31.680Z,10.31
2019-03-03T00:44:31.590Z,10.39
2019-03-03T00:45:31.496Z,10.39
2019-03-03T00:46:31.423Z,10.35
2019-03-03T00:47:31.325Z,10.34
2019-03-03T00:48:31.260Z,10.20
2019-03-03T00:49:31.165Z,10.26
2019-03-03T00:50:31.081Z,10.24
2019-03-03T00:51:30.993Z,10.26
2019-03-03T00:52:30.913Z,10.25
2019-03-03T00:53:30.837Z,10.31
2019-03-03T00:54:30.739Z,10.24
2019-03-03T00:55:30.670Z,10.31
2019-03-03T00:56:30.571Z,10.34
2019-03-03T00:57:30.485Z,10.26
2019-03-03T00:58:30.424Z,10.29
2019-03-03T00:59:30.318Z,10.29
2019-03-03T01:00:30.244Z,10.25
2019-03-03T01:01:30.151Z,10.29
2019-03-03T01:02:30.076Z,10.35
2019-03-03T01:03:29.995Z,10.38
2019-03-03T01:04:29.906Z,10.38
2019-03-03T01:05:29.817Z,10.28
2019-03-03T01:06:29.738Z,10.31
2019-03-03T01:07:29.659Z,10.31
2019-03-03T01:08:29.584Z,10.43
2019-03-03T01:09:29.472Z,10.39
2019-03-03T01:10:29.403Z,10.39
2019-03-03T01:11:29.323Z,10.42
2019-03-03T01:12:29.226Z,10.46
2019-03-03T01:13:29.144Z,10.44
2019-03-03T01:14:29.082Z,10.51
2019-03-03T01:15:28.972Z,10.52
2019-03-03T01:16:28.893Z,-40.00
2019-03-03T01:17:28.805Z,-40.00
2019-03-03T01:18:28.725Z,-40.00
2019-03-03T01:19:28.650Z,-40.00
2019-03-03T01:20:28.557Z,-40.00
2019-03-03T01:21:28.470Z,-40.00
2019-03-03T01:22:28.392Z,-40.00
2019-03-03T01:23:28.301Z,10.57
2019-03-03T01:24:28.237Z,10.60
2019-03-03T01:25:28.138Z,10.63
2019-03-03T01:26:28.058Z,10.73
2019-03-03T01:27:27.969Z,10.63
2019-03-03T01:28:27.897Z,10.73
2019-03-03T01:29:27.813Z,10.78
2019-03-03T01:30:27.723Z,10.80
2019-03-03T01:31:27.631Z,10.73
2019-03-03T01:32:27.555Z,10.78
2019-03-03T01:33:27.468Z,10.78
2019-03-03T01:34:27.400Z,10.73
2019-03-03T01:35:27.293Z,10.78
2019-03-03T01:36:27.235Z,10.81
2019-03-03T01:37:27.131Z,10.72
2019-03-03T01:38:27.049Z,10.76
2019-03-03T01:39:26.973Z,10.72
2019-03-03T01:40:26.875Z,10.80
2019-03-03T01:41:26.806Z,10.78
2019-03-03T01:42:26.715Z,10.78
2019-03-03T01:43:26.627Z,10.73
2019-03-03T01:44:26.562Z,10.73
2019-03-03T01:45:26.459Z,10.70
2019-03-03T01:46:26.412Z,10.73
2019-03-03T01:47:26.295Z,10.66
2019-03-03T01:48:26.211Z,10.69
2019-03-03T01:49:26.134Z,10.80
2019-03-03T01:50:26.046Z,10.76
2019-03-03T01:51:25.956Z,10.87
2019-03-03T01:52:25.877Z,10.81
2019-03-03T01:53:25.790Z,10.84
2019-03-03T01:54:25.726Z,10.90
2019-03-03T01:55:25.623Z,10.86
2019-03-03T01:56:25.541Z,10.88
2019-03-03T01:57:25.452Z,10.93
2019-03-03T01:58:25.374Z,10.94
2019-03-03T01:59:25.300Z,10.95
2019-03-03T02:00:25.203Z,10.94
2019-03-03T02:01:25.119Z,-40.00
2019-03-03T02:02:25.050Z,-40.00
2019-03-03T02:03:24.952Z,10.95
2019-03-03T02:04:24.902Z,11.06
2019-03-03T02:05:24.783Z,11.08
2019-03-03T02:06:24.712Z,11.09
2019-03-03T02:07:24.619Z,11.11
2019-03-03T02:08:24.539Z,11.17
2019-03-03T02:09:24.449Z,11.12
2019-03-03T02:10:24.398Z,11.17
2019-03-03T02:11:24.283Z,11.11
2019-03-03T02:12:24.204Z,11.08
2019-03-03T02:13:24.115Z,11.09
2019-03-03T02:14:24.038Z,11.08
2019-03-03T02:15:23.964Z,11.06
2019-03-03T02:16:23.870Z,11.05
2019-03-03T02:17:23.780Z,10.93
2019-03-03T02:18:23.705Z,10.94
2019-03-03T02:19:23.620Z,10.99
2019-03-03T02:20:23.549Z,10.83
2019-03-03T02:21:23.452Z,10.83
2019-03-03T02:22:23.370Z,10.83
2019-03-03T02:23:23.279Z,10.88
2019-03-03T02:24:23.202Z,10.72
2019-03-03T02:25:23.127Z,10.70
2019-03-03T02:26:23.041Z,10.78
2019-03-03T02:27:22.945Z,10.73
2019-03-03T02:28:22.868Z,10.73
2019-03-03T02:29:22.780Z,10.78
2019-03-03T02:30:22.719Z,10.72
2019-03-03T02:31:22.622Z,10.73
2019-03-03T02:32:22.528Z,10.72
2019-03-03T02:33:22.443Z,10.63
2019-03-03T02:34:22.366Z,10.60
2019-03-03T02:35:22.293Z,10.70
2019-03-03T02:36:22.197Z,10.68
2019-03-03T02:37:22.114Z,10.58
2019-03-03T02:38:22.026Z,10.62
2019-03-03T02:39:21.945Z,10.68
2019-03-03T02:40:21.879Z,10.69
2019-03-03T02:41:21.774Z,10.63
2019-03-03T02:42:21.786Z,10.62
2019-03-03T02:43:21.621Z,10.70
2019-03-03T02:44:21.534Z,10.63
2019-03-03T02:45:21.458Z,10.68
2019-03-03T02:46:21.359Z,10.63
2019-03-03T02:47:21.284Z,10.58
2019-03-03T02:48:21.204Z,10.66
2019-03-03T02:49:21.105Z,10.55
2019-03-03T02:50:21.041Z,10.55
2019-03-03T02:51:20.935Z,10.58
2019-03-03T02:52:20.863Z,10.60
2019-03-03T02:53:20.775Z,10.54
2019-03-03T02:54:20.689Z,10.52
2019-03-03T02:55:20.634Z,10.39
2019-03-03T02:56:20.518Z,10.52
2019-03-03T02:57:20.443Z,10.52
2019-03-03T02:58:20.357Z,10.43
2019-03-03T02:59:20.268Z,10.49
2019-03-03T03:00:20.193Z,10.49
2019-03-03T03:01:20.116Z,10.51
2019-03-03T03:02:20.018Z,10.49
2019-03-03T03:03:19.949Z,10.49
2019-03-03T03:04:19.858Z,10.51
2019-03-03T03:05:19.763Z,10.51
2019-03-03T03:06:19.708Z,10.55
2019-03-03T03:07:19.596Z,10.60
2019-03-03T03:08:19.534Z,10.54
2019-03-03T03:09:19.432Z,10.51
2019-03-03T03:10:19.359Z,10.47
2019-03-03T03:11:19.278Z,10.46
2019-03-03T03:12:19.184Z,10.43
2019-03-03T03:13:19.101Z,10.46
2019-03-03T03:14:19.029Z,10.42
2019-03-03T03:15:18.928Z,10.52
2019-03-03T03:16:18.883Z,10.52
2019-03-03T03:17:18.762Z,10.39
2019-03-03T03:18:18.680Z,10.46
2019-03-03T03:19:18.593Z,10.46
2019-03-03T03:20:18.522Z,10.49
2019-03-03T03:21:18.461Z,10.43
2019-03-03T03:22:18.361Z,10.42
2019-03-03T03:23:18.269Z,10.34
2019-03-03T03:24:18.177Z,10.43
2019-03-03T03:25:18.092Z,10.34
2019-03-03T03:26:18.021Z,10.35
2019-03-03T03:27:17.933Z,10.34
2019-03-03T03:28:17.860Z,10.39
2019-03-03T03:29:17.755Z,10.35
2019-03-03T03:30:17.678Z,10.32
2019-03-03T03:31:17.605Z,10.26
2019-03-03T03:32:17.508Z,10.34
2019-03-03T03:33:17.425Z,10.29
2019-03-03T03:34:17.337Z,10.34
2019-03-03T03:35:17.260Z,10.39
2019-03-03T03:36:17.185Z,10.43
2019-03-03T03:37:17.085Z,10.34
2019-03-03T03:38:17.005Z,10.36
2019-03-03T03:39:16.936Z,10.36
2019-03-03T03:40:16.841Z,10.32
2019-03-03T03:41:16.775Z,10.28
2019-03-03T03:42:16.671Z,10.25
2019-03-03T03:43:16.584Z,10.22
2019-03-03T03:44:16.507Z,10.20
2019-03-03T03:45:16.413Z,10.17
2019-03-03T03:46:16.343Z,10.11
2019-03-03T03:47:16.253Z,10.01
2019-03-03T03:48:16.161Z,10.09
2019-03-03T03:49:16.080Z,9.99
2019-03-03T03:50:16.002Z,10.06
2019-03-03T03:51:15.922Z,10.06
2019-03-03T03:52:15.837Z,9.95
2019-03-03T03:53:15.744Z,9.99
2019-03-03T03:54:15.667Z,9.96
2019-03-03T03:55:15.576Z,9.98
2019-03-03T03:56:15.517Z,9.95
2019-03-03T03:57:15.416Z,9.99
2019-03-03T03:58:15.330Z,10.01
2019-03-03T03:59:15.243Z,10.04
2019-03-03T04:00:15.166Z,10.04
2019-03-03T04:01:15.087Z,9.92
2019-03-03T04:02:14.999Z,10.01
2019-03-03T04:03:14.906Z,9.99
2019-03-03T04:04:14.823Z,9.98
2019-03-03T04:05:14.733Z,9.99
2019-03-03T04:06:14.663Z,9.93
2019-03-03T04:07:14.579Z,9.95
2019-03-03T04:08:14.480Z,9.91
2019-03-03T04:09:14.401Z,9.93
2019-03-03T04:10:14.323Z,9.88
2019-03-03T04:11:14.250Z,9.88
2019-03-03T04:12:14.152Z,9.85
2019-03-03T04:13:14.073Z,9.83
2019-03-03T04:14:13.980Z,9.95
2019-03-03T04:15:13.914Z,9.93
2019-03-03T04:16:13.832Z,9.80
2019-03-03T04:17:13.724Z,9.83
2019-03-03T04:18:13.660Z,9.86
2019-03-03T04:19:13.563Z,9.80
2019-03-03T04:20:13.474Z,9.83
2019-03-03T04:21:13.413Z,9.85
2019-03-03T04:22:13.304Z,9.86
2019-03-03T04:23:13.226Z,9.77
2019-03-03T04:24:13.143Z,9.81
2019-03-03T04:25:13.051Z,9.86
2019-03-03T04:26:12.980Z,9.85
2019-03-03T04:27:12.907Z,9.81
2019-03-03T04:28:12.801Z,9.92
2019-03-03T04:29:12.716Z,9.83
2019-03-03T04:30:12.637Z,9.86
2019-03-03T04:31:12.549Z,9.93
2019-03-03T04:32:12.495Z,9.89
2019-03-03T04:33:12.387Z,9.89
2019-03-03T04:34:12.296Z,9.89
2019-03-03T04:35:12.223Z,9.96
2019-03-03T04:36:12.127Z,9.89
2019-03-03T04:37:12.064Z,9.91
2019-03-03T04:38:12.355Z,9.86
2019-03-03T04:39:11.888Z,9.88
2019-03-03T04:40:11.809Z,9.92
2019-03-03T04:41:11.715Z,9.96
2019-03-03T04:42:11.652Z,9.86
2019-03-03T04:43:11.551Z,9.93
2019-03-03T04:44:11.459Z,9.91
2019-03-03T04:45:11.381Z,9.88
2019-03-03T04:46:11.288Z,9.83
2019-03-03T04:47:11.239Z,9.95
2019-03-03T04:48:11.119Z,9.96
2019-03-03T04:49:11.047Z,9.78
2019-03-03T04:50:10.953Z,9.93
2019-03-03T04:51:10.875Z,9.83
2019-03-03T04:52:10.798Z,9.88
2019-03-03T04:53:10.702Z,9.93
2019-03-03T04:54:10.622Z,9.91
2019-03-03T04:55:10.533Z,9.92
2019-03-03T04:56:10.447Z,9.95
2019-03-03T04:57:10.381Z,9.95
2019-03-03T04:58:10.288Z,9.95
2019-03-03T04:59:10.199Z,10.01
2019-03-03T05:00:10.112Z,10.07
2019-03-03T05:01:10.037Z,10.09
2019-03-03T05:02:09.964Z,10.01
2019-03-03T05:03:09.863Z,10.10
2019-03-03T05:04:09.790Z,10.17
2019-03-03T05:05:09.693Z,10.10
2019-03-03T05:06:09.630Z,10.17
2019-03-03T05:07:09.539Z,10.14
2019-03-03T05:08:09.446Z,10.14
2019-03-03T05:09:09.370Z,10.22
2019-03-03T05:10:09.281Z,10.18
2019-03-03T05:11:09.259Z,10.25
2019-03-03T05:12:09.120Z,10.25
2019-03-03T05:13:09.027Z,10.24
2019-03-03T05:14:08.940Z,10.25
2019-03-03T05:15:08.860Z,10.32
2019-03-03T05:16:08.781Z,10.28
2019-03-03T05:17:08.836Z,10.43
2019-03-03T05:18:08.611Z,10.25
2019-03-03T05:19:08.522Z,10.35
2019-03-03T05:20:08.445Z,10.28
2019-03-03T05:21:08.352Z,10.31
2019-03-03T05:22:08.299Z,10.42
2019-03-03T05:23:08.186Z,10.35
2019-03-03T05:24:08.111Z,10.42
2019-03-03T05:25:08.021Z,10.38
2019-03-03T05:26:07.942Z,10.44
2019-03-03T05:27:07.867Z,10.44
2019-03-03T05:28:07.766Z,10.44
2019-03-03T05:29:07.690Z,10.47
2019-03-03T05:30:07.598Z,10.51
2019-03-03T05:31:07.517Z,10.54
2019-03-03T05:32:07.453Z,10.55
2019-03-03T05:33:07.348Z,10.57
2019-03-03T05:34:07.273Z,10.54
2019-03-03T05:35:07.181Z,10.57
2019-03-03T05:36:07.124Z,10.52
2019-03-03T05:37:07.035Z,10.60
2019-03-03T05:38:06.933Z,10.72
2019-03-03T05:39:06.856Z,10.68
2019-03-03T05:40:06.762Z,10.75
2019-03-03T05:41:06.678Z,10.73
2019-03-03T05:42:06.619Z,10.76
2019-03-03T05:43:06.507Z,10.76
2019-03-03T05:44:06.434Z,10.84
2019-03-03T05:45:06.351Z,10.90
2019-03-03T05:46:06.265Z,10.91
2019-03-03T05:47:06.332Z,10.99
2019-03-03T05:48:06.131Z,10.95
2019-03-03T05:49:06.015Z,10.94
2019-03-03T05:50:05.927Z,10.98
2019-03-03T05:51:05.844Z,10.91
2019-03-03T05:52:05.758Z,10.94
2019-03-03T05:53:05.686Z,10.94
2019-03-03T05:54:05.596Z,10.95
2019-03-03T05:55:05.516Z,10.93
2019-03-03T05:56:05.428Z,10.94
2019-03-03T05:57:05.416Z,10.94
2019-03-03T05:58:05.296Z,10.94
2019-03-03T05:59:05.182Z,10.88
2019-03-03T06:00:05.095Z,11.05
2019-03-03T06:01:05.005Z,11.08
2019-03-03T06:02:04.929Z,11.09
2019-03-03T06:03:04.852Z,11.06
2019-03-03T06:04:04.760Z,10.99
2019-03-03T06:05:04.670Z,11.11
2019-03-03T06:06:04.593Z,11.08
2019-03-03T06:07:04.507Z,11.12
2019-03-03T06:08:04.510Z,11.09
2019-03-03T06:09:04.341Z,11.24
2019-03-03T06:10:04.266Z,11.21
2019-03-03T06:11:04.175Z,11.24
2019-03-03T06:12:04.093Z,11.21
2019-03-03T06:13:04.020Z,11.21
2019-03-03T06:14:03.928Z,11.21
2019-03-03T06:15:03.841Z,11.30
2019-03-03T06:16:03.759Z,11.26
2019-03-03T06:17:03.670Z,11.33
2019-03-03T06:18:03.604Z,11.31
2019-03-03T06:19:03.501Z,11.31
2019-03-03T06:20:03.424Z,11.35
2019-03-03T06:21:03.336Z,11.39
2019-03-03T06:22:03.255Z,11.44
2019-03-03T06:23:03.179Z,11.46
2019-03-03T06:24:03.089Z,11.45
2019-03-03T06:25:02.999Z,11.44
2019-03-03T06:26:02.925Z,11.49
2019-03-03T06:27:02.837Z,11.51
2019-03-03T06:28:02.780Z,11.56
2019-03-03T06:29:02.666Z,11.59
2019-03-03T06:30:02.589Z,11.56
2019-03-03T06:31:02.508Z,11.56
2019-03-03T06:32:02.414Z,11.59
2019-03-03T06:33:02.335Z,11.57
2019-03-03T06:34:02.269Z,11.51
2019-03-03T06:35:02.169Z,11.51
2019-03-03T06:36:02.081Z,11.46
2019-03-03T06:37:02.009Z,11.48
2019-03-03T06:38:01.914Z,11.53
2019-03-03T06:39:01.846Z,11.35
2019-03-03T06:40:01.754Z,11.35
2019-03-03T06:41:01.665Z,11.38
2019-03-03T06:42:01.595Z,11.36
2019-03-03T06:43:01.499Z,11.38
2019-03-03T06:44:01.426Z,11.41
2019-03-03T06:45:01.337Z,11.31
2019-03-03T06:46:01.246Z,11.30
2019-03-03T06:47:01.162Z,11.30
2019-03-03T06:48:01.083Z,11.38
2019-03-03T06:49:01.006Z,11.31
2019-03-03T06:50:00.978Z,11.33
2019-03-03T06:51:00.829Z,11.38
2019-03-03T06:52:00.760Z,11.51
2019-03-03T06:53:00.659Z,11.46
2019-03-03T06:54:00.600Z,11.31
2019-03-03T06:55:00.504Z,11.41
2019-03-03T06:56:00.438Z,11.48
2019-03-03T06:57:00.327Z,11.53
2019-03-03T06:58:00.253Z,11.53
2019-03-03T06:59:00.175Z,11.54
2019-03-03T07:00:00.221Z,11.57
2019-03-03T07:00:59.993Z,11.62
2019-03-03T07:01:59.915Z,11.69
2019-03-03T07:02:59.827Z,11.63
2019-03-03T07:03:59.759Z,11.63
2019-03-03T07:04:59.661Z,11.77
2019-03-03T07:05:59.577Z,11.64
2019-03-03T07:06:59.489Z,11.69
2019-03-03T07:07:59.412Z,11.67
2019-03-03T07:08:59.336Z,11.72
2019-03-03T07:09:59.265Z,11.75
2019-03-03T07:10:59.158Z,11.81
2019-03-03T07:11:59.077Z,11.85
2019-03-03T07:12:58.998Z,11.93
2019-03-03T07:13:58.917Z,11.96
2019-03-03T07:14:58.845Z,11.96
2019-03-03T07:15:58.736Z,11.94
2019-03-03T07:16:58.654Z,11.94
2019-03-03T07:17:58.580Z,11.90
2019-03-03T07:18:58.491Z,12.00
2019-03-03T07:19:58.428Z,12.01
2019-03-03T07:20:58.320Z,12.07
2019-03-03T07:21:58.244Z,11.98
2019-03-03T07:22:58.159Z,12.05
2019-03-03T07:23:58.068Z,12.04
2019-03-03T07:24:58.014Z,12.01
2019-03-03T07:25:57.905Z,12.04
2019-03-03T07:26:57.819Z,12.11
2019-03-03T07:27:57.743Z,12.07
2019-03-03T07:28:57.652Z,12.12
2019-03-03T07:29:57.592Z,12.13
2019-03-03T07:30:57.487Z,12.13
2019-03-03T07:31:57.412Z,12.08
2019-03-03T07:32:57.321Z,11.98
2019-03-03T07:33:57.244Z,12.15
2019-03-03T07:34:57.174Z,12.12
2019-03-03T07:35:57.076Z,12.05
2019-03-03T07:36:56.988Z,12.16
2019-03-03T07:37:56.923Z,12.15
2019-03-03T07:38:56.820Z,12.12
2019-03-03T07:39:56.758Z,12.13
2019-03-03T07:40:56.654Z,12.19
2019-03-03T07:41:56.585Z,12.15
2019-03-03T07:42:56.486Z,12.16
2019-03-03T07:43:56.403Z,12.07
2019-03-03T07:44:56.346Z,12.16
2019-03-03T07:45:56.243Z,12.13
2019-03-03T07:46:56.156Z,12.11
2019-03-03T07:47:56.079Z,12.12
2019-03-03T07:48:55.990Z,12.26
2019-03-03T07:49:55.914Z,12.22
2019-03-03T07:50:55.829Z,12.26
2019-03-03T07:51:55.742Z,12.30
2019-03-03T07:52:55.657Z,12.23
2019-03-03T07:53:55.580Z,12.25
2019-03-03T07:54:55.500Z,12.21
2019-03-03T07:55:55.422Z,12.22
2019-03-03T07:56:55.324Z,12.22
2019-03-03T07:57:55.248Z,12.25
2019-03-03T07:58:55.157Z,12.29
2019-03-03T07:59:55.100Z,12.30
2019-03-03T08:00:54.995Z,12.33
2019-03-03T08:01:54.916Z,12.25
2019-03-03T08:02:54.826Z,12.29
2019-03-03T08:03:54.749Z,12.30
2019-03-03T08:04:54.659Z,12.26
2019-03-03T08:05:54.588Z,12.30
2019-03-03T08:06:54.700Z,12.37
2019-03-03T08:07:54.418Z,12.34
2019-03-03T08:08:54.326Z,12.33
2019-03-03T08:09:54.272Z,12.30
2019-03-03T08:10:54.176Z,12.26
2019-03-03T08:11:54.082Z,12.30
2019-03-03T08:12:54.126Z,12.30
2019-03-03T08:13:53.914Z,12.29
2019-03-03T08:14:53.831Z,12.34
2019-03-03T08:15:53.971Z,12.25
2019-03-03T08:16:53.667Z,12.31
2019-03-03T08:17:53.591Z,12.31
2019-03-03T08:18:53.563Z,12.30
2019-03-03T08:19:53.558Z,12.31
2019-03-03T08:20:53.346Z,12.29
2019-03-03T08:21:53.366Z,12.25
2019-03-03T08:22:53.166Z,12.29
2019-03-03T08:23:53.174Z,12.21
2019-03-03T08:24:53.000Z,12.16
2019-03-03T08:25:53.014Z,12.16
2019-03-03T08:26:52.834Z,12.13
2019-03-03T08:27:52.790Z,12.18
2019-03-03T08:28:52.667Z,12.15
2019-03-03T08:29:52.586Z,12.19
2019-03-03T08:30:52.637Z,12.16
2019-03-03T08:31:52.425Z,12.13
2019-03-03T08:32:52.342Z,12.07
2019-03-03T08:33:52.422Z,11.98
2019-03-03T08:34:52.171Z,12.03
2019-03-03T08:35:52.104Z,12.05
2019-03-03T08:36:52.031Z,12.11
2019-03-03T08:37:51.923Z,12.07
2019-03-03T08:38:51.836Z,12.04
2019-03-03T08:39:51.844Z,12.04
2019-03-03T08:40:51.682Z,11.97
2019-03-03T08:41:51.654Z,11.98
2019-03-03T08:42:51.504Z,11.96
2019-03-03T08:43:51.564Z,11.84
2019-03-03T08:44:51.337Z,11.79
2019-03-03T08:45:51.402Z,11.74
2019-03-03T08:46:51.173Z,11.67
2019-03-03T08:47:53.370Z,11.60
2019-03-03T08:48:51.004Z,11.64
2019-03-03T08:49:52.217Z,11.64
2019-03-03T08:50:50.861Z,11.64
2019-03-03T08:51:51.020Z,11.72
2019-03-03T08:52:50.669Z,11.72
2019-03-03T08:53:50.606Z,11.67
2019-03-03T08:54:50.506Z,11.66
2019-03-03T08:55:50.424Z,11.62
2019-03-03T08:56:50.451Z,11.64
2019-03-03T08:57:50.252Z,11.63
2019-03-03T08:58:50.174Z,11.69
2019-03-03T08:59:50.239Z,11.64
2019-03-03T09:00:50.003Z,11.62
2019-03-03T09:01:49.940Z,11.74
2019-03-03T09:02:50.054Z,11.75
2019-03-03T09:03:49.752Z,11.66
2019-03-03T09:04:49.670Z,11.70
2019-03-03T09:05:49.872Z,11.72
2019-03-03T09:06:49.527Z,11.78
2019-03-03T09:07:49.579Z,11.82
2019-03-03T09:08:49.342Z,11.87
2019-03-03T09:09:49.264Z,11.85
2019-03-03T09:10:49.505Z,11.97
2019-03-03T09:11:49.102Z,12.00
2019-03-03T09:12:49.009Z,11.96
2019-03-03T09:13:49.116Z,11.97
2019-03-03T09:14:48.842Z,12.00
2019-03-03T09:15:48.752Z,12.03
2019-03-03T09:16:48.756Z,12.00
2019-03-03T09:17:48.580Z,12.00
2019-03-03T09:18:48.517Z,11.90
2019-03-03T09:19:48.538Z,12.00
2019-03-03T09:20:48.342Z,11.90
2019-03-03T09:21:48.302Z,11.88
2019-03-03T09:22:48.256Z,11.96
2019-03-03T09:23:48.089Z,11.94
2019-03-03T09:24:48.008Z,11.90
2019-03-03T09:25:48.069Z,12.05
2019-03-03T09:26:47.840Z,12.00
2019-03-03T09:27:47.771Z,12.03
2019-03-03T09:28:47.775Z,12.01
2019-03-03T09:29:47.589Z,12.08
2019-03-03T09:30:47.501Z,12.04
2019-03-03T09:31:47.491Z,11.98
2019-03-03T09:32:47.347Z,11.96
2019-03-03T09:33:49.394Z,11.98
2019-03-03T09:34:47.167Z,11.96
2019-03-03T09:35:47.084Z,11.90
2019-03-03T09:36:47.112Z,11.82
2019-03-03T09:37:46.931Z,11.84
2019-03-03T09:38:46.834Z,11.85
2019-03-03T09:39:46.826Z,11.85
2019-03-03T09:40:46.667Z,11.90
2019-03-03T09:41:46.643Z,11.82
2019-03-03T09:42:46.515Z,11.81
2019-03-03T09:43:46.433Z,11.82
2019-03-03T09:44:46.341Z,11.81
2019-03-03T09:45:46.358Z,11.84
2019-03-03T09:46:46.168Z,11.81
2019-03-03T09:47:46.200Z,11.82
2019-03-03T09:48:46.006Z,11.79
2019-03-03T09:49:45.973Z,11.84
2019-03-03T09:50:45.829Z,11.88
2019-03-03T09:51:45.782Z,11.87
2019-03-03T09:52:45.686Z,11.87
2019-03-03T09:53:45.693Z,11.90
2019-03-03T09:54:45.501Z,11.93
2019-03-03T09:55:45.418Z,11.88
2019-03-03T09:56:45.410Z,11.87
2019-03-03T09:57:45.263Z,11.85
2019-03-03T09:58:45.166Z,11.84
2019-03-03T09:59:45.229Z,11.81
2019-03-03T10:00:45.013Z,11.87
2019-03-03T10:01:45.032Z,11.94
2019-03-03T10:02:44.846Z,11.93
2019-03-03T10:03:44.843Z,11.88
2019-03-03T10:04:44.670Z,11.96
2019-03-03T10:05:45.678Z,11.93
2019-03-03T10:06:44.502Z,11.85
2019-03-03T10:07:44.491Z,12.00
2019-03-03T10:08:44.335Z,12.01
2019-03-03T10:09:44.884Z,12.01
2019-03-03T10:10:44.166Z,11.98
2019-03-03T10:11:44.084Z,11.93
2019-03-03T10:12:44.012Z,12.00
2019-03-03T10:13:43.989Z,11.94
2019-03-03T10:14:43.833Z,11.93
2019-03-03T10:15:43.762Z,11.93
2019-03-03T10:16:43.667Z,11.96
2019-03-03T10:17:45.792Z,12.03
2019-03-03T10:18:43.506Z,11.97
2019-03-03T10:19:43.524Z,12.03
2019-03-03T10:20:43.333Z,11.93
2019-03-03T10:21:43.253Z,11.97
2019-03-03T10:22:43.364Z,11.97
2019-03-03T10:23:43.082Z,11.98
2019-03-03T10:24:43.002Z,12.05
2019-03-03T10:25:42.947Z,11.96
2019-03-03T10:26:42.849Z,11.94
2019-03-03T10:27:42.774Z,11.88
2019-03-03T10:28:42.762Z,11.96
2019-03-03T10:29:42.583Z,11.90
2019-03-03T10:30:42.502Z,11.96
2019-03-03T10:31:42.476Z,11.96
2019-03-03T10:32:42.364Z,11.98
2019-03-03T10:33:42.258Z,11.97
2019-03-03T10:34:42.190Z,12.00
2019-03-03T10:35:42.084Z,11.93
2019-03-03T10:36:42.005Z,11.98
2019-03-03T10:37:42.185Z,11.94
2019-03-03T10:38:41.837Z,11.94
2019-03-03T10:39:41.813Z,11.97
2019-03-03T10:40:41.674Z,12.03
2019-03-03T10:41:41.624Z,12.07
2019-03-03T10:42:41.501Z,12.08
2019-03-03T10:43:41.464Z,12.01
2019-03-03T10:44:41.337Z,12.03
2019-03-03T10:45:41.461Z,12.04
2019-03-03T10:46:41.170Z,12.00
2019-03-03T10:47:41.083Z,12.05
2019-03-03T10:48:41.087Z,12.07
2019-03-03T10:49:40.920Z,12.08
2019-03-03T10:50:40.837Z,12.07
2019-03-03T10:51:40.875Z,12.04
2019-03-03T10:52:40.671Z,12.04
2019-03-03T10:53:40.712Z,12.12
2019-03-03T10:54:40.505Z,12.04
2019-03-03T10:55:40.494Z,12.03
2019-03-03T10:56:40.340Z,12.08
2019-03-03T10:57:40.506Z,12.16
2019-03-03T10:58:40.184Z,12.16
2019-03-03T10:59:40.315Z,12.12
2019-03-03T11:00:40.011Z,12.22
2019-03-03T11:01:39.920Z,12.22
2019-03-03T11:02:39.950Z,12.23
2019-03-03T11:03:39.776Z,12.26
2019-03-03T11:04:39.674Z,12.34
2019-03-03T11:05:39.751Z,12.25
2019-03-03T11:06:39.507Z,12.31
2019-03-03T11:07:39.432Z,12.30
2019-03-03T11:08:39.588Z,12.29
2019-03-03T11:09:39.255Z,12.26
2019-03-03T11:10:39.173Z,12.25
2019-03-03T11:11:39.091Z,12.31
2019-03-03T11:12:39.078Z,12.26
2019-03-03T11:13:38.945Z,12.30
2019-03-03T11:14:38.841Z,12.33
2019-03-03T11:15:38.767Z,12.34
2019-03-03T11:16:38.697Z,12.36
2019-03-03T11:17:38.603Z,12.41
2019-03-03T11:18:38.646Z,12.41
2019-03-03T11:19:38.424Z,12.48
2019-03-03T11:20:38.425Z,12.38
2019-03-03T11:21:38.260Z,12.43
2019-03-03T11:22:40.273Z,12.43
2019-03-03T11:23:38.134Z,12.48
2019-03-03T11:24:38.031Z,12.40
2019-03-03T11:25:37.927Z,12.38
2019-03-03T11:26:37.845Z,12.48
2019-03-03T11:27:37.852Z,12.41
2019-03-03T11:28:37.697Z,12.41
2019-03-03T11:29:37.600Z,12.40
2019-03-03T11:30:39.494Z,12.38
2019-03-03T11:31:37.435Z,12.33
2019-03-03T11:32:37.345Z,12.33
2019-03-03T11:33:37.320Z,12.29
2019-03-03T11:34:37.183Z,12.38
2019-03-03T11:35:37.097Z,12.31
2019-03-03T11:36:37.088Z,12.33
2019-03-03T11:37:36.931Z,12.29
2019-03-03T11:38:36.872Z,12.34
2019-03-03T11:39:36.801Z,12.41
2019-03-03T11:40:36.683Z,12.38
2019-03-03T11:41:36.600Z,12.43
2019-03-03T11:42:36.624Z,12.31
2019-03-03T11:43:36.449Z,12.43
2019-03-03T11:44:36.432Z,12.51
2019-03-03T11:45:36.268Z,12.52
2019-03-03T11:46:36.240Z,12.49
2019-03-03T11:47:36.106Z,12.55
2019-03-03T11:48:36.082Z,12.59
2019-03-03T11:49:35.937Z,12.63
2019-03-03T11:50:35.960Z,12.63
2019-03-03T11:51:35.769Z,12.56
2019-03-03T11:52:35.773Z,12.59
2019-03-03T11:53:35.604Z,12.59
2019-03-03T11:54:35.606Z,12.63
2019-03-03T11:55:35.442Z,12.62
2019-03-03T11:56:35.355Z,-40.00
2019-03-03T11:57:35.288Z,-40.00
2019-03-03T11:58:35.192Z,-40.00
2019-03-03T11:59:35.122Z,-40.00
2019-03-03T12:00:35.103Z,-40.00
2019-03-03T12:01:34.943Z,-40.00
2019-03-03T12:02:34.860Z,-40.00
2019-03-03T12:03:34.822Z,-40.00
2019-03-03T12:04:34.713Z,-40.00
2019-03-03T12:05:34.627Z,-40.00
2019-03-03T12:06:34.529Z,-40.00
2019-03-03T12:07:36.578Z,-40.00
2019-03-03T12:08:34.444Z,-40.00
2019-03-03T12:09:34.294Z,-40.00
2019-03-03T12:10:34.266Z,-40.00
2019-03-03T12:11:34.156Z,-40.00
2019-03-03T12:12:34.031Z,-40.00
2019-03-03T12:13:33.966Z,-40.00
2019-03-03T12:14:33.929Z,-40.00
2019-03-03T12:15:34.799Z,-40.00
2019-03-03T12:16:33.701Z,-40.00
2019-03-03T12:17:33.624Z,-40.00
2019-03-03T12:18:33.597Z,-40.00
2019-03-03T12:19:33.469Z,-40.00
2019-03-03T12:20:33.372Z,-40.00
2019-03-03T12:21:33.304Z,-40.00
2019-03-03T12:22:33.217Z,-40.00
2019-03-03T12:23:34.139Z,-40.00
2019-03-03T12:24:33.058Z,-40.00
2019-03-03T12:25:33.024Z,-40.00
2019-03-03T12:26:32.877Z,-40.00
2019-03-03T12:27:32.844Z,-40.00
2019-03-03T12:28:32.713Z,-40.00
2019-03-03T12:29:32.683Z,-40.00
2019-03-03T12:30:32.545Z,-40.00
2019-03-03T12:31:32.602Z,-40.00
2019-03-03T12:32:32.388Z,-40.00
2019-03-03T12:33:32.363Z,-40.00
2019-03-03T12:34:32.231Z,-40.00
2019-03-03T12:35:32.173Z,-40.00
2019-03-03T12:36:32.050Z,-40.00
2019-03-03T12:37:31.983Z,-40.00
2019-03-03T12:38:31.886Z,-40.00
2019-03-03T12:39:31.927Z,-40.00
2019-03-03T12:40:31.721Z,-40.00
2019-03-03T12:41:31.704Z,-40.00
2019-03-03T12:42:31.560Z,-40.00
2019-03-03T12:43:31.510Z,13.16
2019-03-03T12:44:31.403Z,13.14
2019-03-03T12:45:31.448Z,13.17
2019-03-03T12:46:31.224Z,13.16
2019-03-03T12:47:31.141Z,13.12
2019-03-03T12:48:31.140Z,13.09
2019-03-03T12:49:30.992Z,13.17
2019-03-03T12:50:30.897Z,13.12
2019-03-03T12:51:30.852Z,13.16